sensor_id;sensor_type;location;lat;lon;timestamp;temperature;humidity
29777;DHT22;16677;52.224;7.484;2023-09-19T00:00:56;16.70;1.00
29777;DHT22;16677;52.224;7.484;2023-09-19T00:03:23;16.80;1.00
29777;DHT22;16677;52.224;7.484;2023-09-19T00:05:51;16.80;1.00
29777;DHT22;16677;52.224;7.484;2023-09-19T00:08:18;16.70;1.00
29777;DHT22;16677;52.224;7.484;2023-09-19T00:10:50;16.70;1.00
29777;DHT22;16677;52.224;7.484;2023-09-19T00:13:17;16.70;1.00
29777;DHT22;16677;52.224;7.484;2023-09-19T00:15:46;16.70;1.00
29777;DHT22;16677;52.224;7.484;2023-09-19T00:18:20;16.70;1.00
29777;DHT22;16677;52.224;7.484;2023-09-19T00:20:48;16.60;1.00
29777;DHT22;16677;52.224;7.484;2023-09-19T00:23:16;16.60;1.00
29777;DHT22;16677;52.224;7.484;2023-09-19T00:25:43;16.60;1.00
29777;DHT22;16677;52.224;7.484;2023-09-19T00:28:10;16.50;99.90
29777;DHT22;16677;52.224;7.484;2023-09-19T00:30:38;16.60;99.90
29777;DHT22;16677;52.224;7.484;2023-09-19T00:33:07;16.60;99.90
29777;DHT22;16677;52.224;7.484;2023-09-19T00:35:34;16.50;99.90
29777;DHT22;16677;52.224;7.484;2023-09-19T00:38:04;16.50;99.90
29777;DHT22;16677;52.224;7.484;2023-09-19T00:40:33;16.40;99.90
29777;DHT22;16677;52.224;7.484;2023-09-19T00:43:00;16.40;99.90
29777;DHT22;16677;52.224;7.484;2023-09-19T00:45:27;16.40;99.90
29777;DHT22;16677;52.224;7.484;2023-09-19T00:47:55;16.30;99.90
29777;DHT22;16677;52.224;7.484;2023-09-19T00:50:24;16.30;99.90
29777;DHT22;16677;52.224;7.484;2023-09-19T00:52:53;16.20;99.90
29777;DHT22;16677;52.224;7.484;2023-09-19T00:55:23;16.20;99.90
29777;DHT22;16677;52.224;7.484;2023-09-19T00:57:50;16.10;99.90
29777;DHT22;16677;52.224;7.484;2023-09-19T01:00:17;16.00;99.90
29777;DHT22;16677;52.224;7.484;2023-09-19T01:02:47;16.00;99.90
29777;DHT22;16677;52.224;7.484;2023-09-19T01:05:14;15.90;1.00
29777;DHT22;16677;52.224;7.484;2023-09-19T01:07:42;15.90;1.00
29777;DHT22;16677;52.224;7.484;2023-09-19T01:10:10;15.90;1.00
29777;DHT22;16677;52.224;7.484;2023-09-19T01:15:11;15.80;1.00
29777;DHT22;16677;52.224;7.484;2023-09-19T01:17:46;15.80;1.00
29777;DHT22;16677;52.224;7.484;2023-09-19T01:20:26;15.80;1.00
29777;DHT22;16677;52.224;7.484;2023-09-19T01:28:30;15.80;80.40
29777;DHT22;16677;52.224;7.484;2023-09-19T01:30:59;15.80;1.00
29777;DHT22;16677;52.224;7.484;2023-09-19T01:33:28;15.80;1.00
29777;DHT22;16677;52.224;7.484;2023-09-19T01:36:00;15.80;1.00
29777;DHT22;16677;52.224;7.484;2023-09-19T01:38:28;15.70;71.50
29777;DHT22;16677;52.224;7.484;2023-09-19T01:41:12;15.70;19.90
29777;DHT22;16677;52.224;7.484;2023-09-19T01:43:42;15.70;29.40
29777;DHT22;16677;52.224;7.484;2023-09-19T01:46:17;15.80;42.30
29777;DHT22;16677;52.224;7.484;2023-09-19T01:51:46;15.80;1.00
29777;DHT22;16677;52.224;7.484;2023-09-19T01:54:21;15.80;1.00
29777;DHT22;16677;52.224;7.484;2023-09-19T01:57:16;15.80;1.00
29777;DHT22;16677;52.224;7.484;2023-09-19T01:59:59;15.80;1.00
29777;DHT22;16677;52.224;7.484;2023-09-19T02:02:28;15.80;1.00
29777;DHT22;16677;52.224;7.484;2023-09-19T02:04:56;15.80;1.00
29777;DHT22;16677;52.224;7.484;2023-09-19T02:07:24;15.70;1.00
29777;DHT22;16677;52.224;7.484;2023-09-19T02:09:51;15.80;1.00
29777;DHT22;16677;52.224;7.484;2023-09-19T02:12:18;15.70;1.00
29777;DHT22;16677;52.224;7.484;2023-09-19T02:14:45;15.70;99.90
29777;DHT22;16677;52.224;7.484;2023-09-19T02:17:12;15.80;99.90
29777;DHT22;16677;52.224;7.484;2023-09-19T02:19:40;15.70;99.90
29777;DHT22;16677;52.224;7.484;2023-09-19T02:22:08;15.60;99.90
29777;DHT22;16677;52.224;7.484;2023-09-19T02:24:38;15.70;99.90
29777;DHT22;16677;52.224;7.484;2023-09-19T02:27:05;15.60;99.90
29777;DHT22;16677;52.224;7.484;2023-09-19T02:29:34;15.60;99.90
29777;DHT22;16677;52.224;7.484;2023-09-19T02:32:01;15.50;1.00
29777;DHT22;16677;52.224;7.484;2023-09-19T02:34:30;15.50;99.90
29777;DHT22;16677;52.224;7.484;2023-09-19T02:36:57;15.50;1.00
29777;DHT22;16677;52.224;7.484;2023-09-19T02:39:24;15.50;1.00
29777;DHT22;16677;52.224;7.484;2023-09-19T02:41:51;15.50;1.00
29777;DHT22;16677;52.224;7.484;2023-09-19T02:44:20;15.40;1.00
29777;DHT22;16677;52.224;7.484;2023-09-19T02:46:47;15.30;1.00
29777;DHT22;16677;52.224;7.484;2023-09-19T02:49:14;15.40;1.00
29777;DHT22;16677;52.224;7.484;2023-09-19T02:51:41;15.30;1.00
29777;DHT22;16677;52.224;7.484;2023-09-19T02:54:08;15.20;97.70
29777;DHT22;16677;52.224;7.484;2023-09-19T02:56:36;15.10;99.90
29777;DHT22;16677;52.224;7.484;2023-09-19T02:59:03;15.10;99.90
29777;DHT22;16677;52.224;7.484;2023-09-19T03:01:30;15.20;1.00
29777;DHT22;16677;52.224;7.484;2023-09-19T03:03:58;15.10;1.00
29777;DHT22;16677;52.224;7.484;2023-09-19T03:06:25;15.00;1.00
29777;DHT22;16677;52.224;7.484;2023-09-19T03:08:52;15.00;93.60
29777;DHT22;16677;52.224;7.484;2023-09-19T03:11:20;14.90;99.90
29777;DHT22;16677;52.224;7.484;2023-09-19T03:13:53;14.90;99.90
29777;DHT22;16677;52.224;7.484;2023-09-19T03:16:20;14.90;99.90
29777;DHT22;16677;52.224;7.484;2023-09-19T03:18:48;14.90;99.90
29777;DHT22;16677;52.224;7.484;2023-09-19T03:21:16;14.80;99.90
29777;DHT22;16677;52.224;7.484;2023-09-19T03:23:43;14.80;99.90
29777;DHT22;16677;52.224;7.484;2023-09-19T03:26:13;14.90;94.00
29777;DHT22;16677;52.224;7.484;2023-09-19T03:28:43;14.90;1.00
29777;DHT22;16677;52.224;7.484;2023-09-19T03:31:12;14.90;1.00
29777;DHT22;16677;52.224;7.484;2023-09-19T03:33:39;14.90;99.90
29777;DHT22;16677;52.224;7.484;2023-09-19T03:36:07;14.90;99.90
29777;DHT22;16677;52.224;7.484;2023-09-19T03:38:34;14.80;99.90
29777;DHT22;16677;52.224;7.484;2023-09-19T03:41:01;14.80;99.90
29777;DHT22;16677;52.224;7.484;2023-09-19T03:43:28;14.80;99.90
29777;DHT22;16677;52.224;7.484;2023-09-19T03:45:55;14.80;99.90
29777;DHT22;16677;52.224;7.484;2023-09-19T03:48:22;14.70;99.90
29777;DHT22;16677;52.224;7.484;2023-09-19T03:50:49;14.70;99.90
29777;DHT22;16677;52.224;7.484;2023-09-19T03:53:17;14.70;99.90
29777;DHT22;16677;52.224;7.484;2023-09-19T03:55:45;14.70;99.90
29777;DHT22;16677;52.224;7.484;2023-09-19T03:58:12;14.60;99.90
29777;DHT22;16677;52.224;7.484;2023-09-19T04:00:40;14.60;99.90
29777;DHT22;16677;52.224;7.484;2023-09-19T04:03:08;14.60;27.80
29777;DHT22;16677;52.224;7.484;2023-09-19T04:05:35;14.70;1.00
29777;DHT22;16677;52.224;7.484;2023-09-19T04:08:02;14.60;1.00
29777;DHT22;16677;52.224;7.484;2023-09-19T04:10:29;14.60;1.00
29777;DHT22;16677;52.224;7.484;2023-09-19T04:12:56;14.70;1.00
29777;DHT22;16677;52.224;7.484;2023-09-19T04:15:23;14.70;1.00
29777;DHT22;16677;52.224;7.484;2023-09-19T04:17:51;14.60;1.00
29777;DHT22;16677;52.224;7.484;2023-09-19T04:20:18;14.60;1.00
29777;DHT22;16677;52.224;7.484;2023-09-19T04:22:51;14.60;1.00
29777;DHT22;16677;52.224;7.484;2023-09-19T04:25:18;14.50;1.00
29777;DHT22;16677;52.224;7.484;2023-09-19T04:27:45;14.50;99.90
29777;DHT22;16677;52.224;7.484;2023-09-19T04:30:13;14.50;99.90
29777;DHT22;16677;52.224;7.484;2023-09-19T04:32:41;14.50;99.90
29777;DHT22;16677;52.224;7.484;2023-09-19T04:35:08;14.50;99.90
29777;DHT22;16677;52.224;7.484;2023-09-19T04:37:40;14.40;99.90
29777;DHT22;16677;52.224;7.484;2023-09-19T04:40:08;14.40;99.90
29777;DHT22;16677;52.224;7.484;2023-09-19T04:42:40;14.40;1.00
29777;DHT22;16677;52.224;7.484;2023-09-19T04:45:07;14.40;1.00
29777;DHT22;16677;52.224;7.484;2023-09-19T04:47:38;14.30;1.00
29777;DHT22;16677;52.224;7.484;2023-09-19T04:50:08;14.30;1.00
29777;DHT22;16677;52.224;7.484;2023-09-19T04:52:41;14.20;1.00
29777;DHT22;16677;52.224;7.484;2023-09-19T04:55:09;14.20;1.00
29777;DHT22;16677;52.224;7.484;2023-09-19T04:57:37;14.10;1.00
29777;DHT22;16677;52.224;7.484;2023-09-19T05:00:05;14.20;1.00
29777;DHT22;16677;52.224;7.484;2023-09-19T05:02:38;14.10;1.00
29777;DHT22;16677;52.224;7.484;2023-09-19T05:05:07;14.10;1.00
29777;DHT22;16677;52.224;7.484;2023-09-19T05:07:34;14.10;1.00
29777;DHT22;16677;52.224;7.484;2023-09-19T05:10:02;14.00;1.00
29777;DHT22;16677;52.224;7.484;2023-09-19T05:12:32;14.00;1.00
29777;DHT22;16677;52.224;7.484;2023-09-19T05:15:05;13.90;1.00
29777;DHT22;16677;52.224;7.484;2023-09-19T05:17:33;14.00;1.00
29777;DHT22;16677;52.224;7.484;2023-09-19T05:20:01;13.90;1.00
29777;DHT22;16677;52.224;7.484;2023-09-19T05:25:09;13.90;1.00
29777;DHT22;16677;52.224;7.484;2023-09-19T05:27:37;13.90;1.00
29777;DHT22;16677;52.224;7.484;2023-09-19T05:30:04;13.90;1.00
29777;DHT22;16677;52.224;7.484;2023-09-19T05:32:31;13.90;1.00
29777;DHT22;16677;52.224;7.484;2023-09-19T05:34:58;13.90;1.00
29777;DHT22;16677;52.224;7.484;2023-09-19T05:37:25;13.80;1.00
29777;DHT22;16677;52.224;7.484;2023-09-19T05:39:53;13.90;1.00
29777;DHT22;16677;52.224;7.484;2023-09-19T05:42:20;13.90;1.00
29777;DHT22;16677;52.224;7.484;2023-09-19T05:44:47;13.90;99.90
29777;DHT22;16677;52.224;7.484;2023-09-19T05:47:14;13.90;99.90
29777;DHT22;16677;52.224;7.484;2023-09-19T05:49:41;14.00;99.90
29777;DHT22;16677;52.224;7.484;2023-09-19T05:52:08;14.00;99.90
29777;DHT22;16677;52.224;7.484;2023-09-19T05:54:35;14.10;99.90
29777;DHT22;16677;52.224;7.484;2023-09-19T05:57:04;14.20;99.90
29777;DHT22;16677;52.224;7.484;2023-09-19T05:59:31;14.30;1.00
29777;DHT22;16677;52.224;7.484;2023-09-19T06:01:59;14.40;1.00
29777;DHT22;16677;52.224;7.484;2023-09-19T06:04:27;14.60;1.00
29777;DHT22;16677;52.224;7.484;2023-09-19T06:06:54;14.70;1.00
29777;DHT22;16677;52.224;7.484;2023-09-19T06:09:21;14.90;1.00
29777;DHT22;16677;52.224;7.484;2023-09-19T06:11:49;14.80;1.00
29777;DHT22;16677;52.224;7.484;2023-09-19T06:14:16;14.90;99.90
29777;DHT22;16677;52.224;7.484;2023-09-19T06:19:18;15.00;99.90
29777;DHT22;16677;52.224;7.484;2023-09-19T06:21:49;15.20;99.90
29777;DHT22;16677;52.224;7.484;2023-09-19T06:24:16;15.10;99.90
29777;DHT22;16677;52.224;7.484;2023-09-19T06:26:43;15.10;99.90
29777;DHT22;16677;52.224;7.484;2023-09-19T06:29:11;15.10;99.90
29777;DHT22;16677;52.224;7.484;2023-09-19T06:31:38;15.20;99.90
29777;DHT22;16677;52.224;7.484;2023-09-19T06:34:05;15.20;99.90
29777;DHT22;16677;52.224;7.484;2023-09-19T06:36:33;15.10;99.90
29777;DHT22;16677;52.224;7.484;2023-09-19T06:39:00;15.10;99.90
29777;DHT22;16677;52.224;7.484;2023-09-19T06:41:27;15.00;99.90
29777;DHT22;16677;52.224;7.484;2023-09-19T06:43:54;15.00;99.90
29777;DHT22;16677;52.224;7.484;2023-09-19T06:46:21;15.00;99.90
29777;DHT22;16677;52.224;7.484;2023-09-19T06:48:48;14.90;99.90
29777;DHT22;16677;52.224;7.484;2023-09-19T06:51:16;14.80;99.90
29777;DHT22;16677;52.224;7.484;2023-09-19T06:53:43;14.90;99.90
29777;DHT22;16677;52.224;7.484;2023-09-19T06:56:10;14.90;99.90
29777;DHT22;16677;52.224;7.484;2023-09-19T06:58:37;14.90;99.90
29777;DHT22;16677;52.224;7.484;2023-09-19T07:01:04;15.00;99.90
29777;DHT22;16677;52.224;7.484;2023-09-19T07:03:31;15.10;99.90
29777;DHT22;16677;52.224;7.484;2023-09-19T07:06:00;15.20;99.90
29777;DHT22;16677;52.224;7.484;2023-09-19T07:08:27;15.30;99.90
29777;DHT22;16677;52.224;7.484;2023-09-19T07:10:55;15.30;99.90
29777;DHT22;16677;52.224;7.484;2023-09-19T07:13:22;15.60;99.90
29777;DHT22;16677;52.224;7.484;2023-09-19T07:15:51;15.70;99.50
29777;DHT22;16677;52.224;7.484;2023-09-19T07:18:18;15.90;90.60
29777;DHT22;16677;52.224;7.484;2023-09-19T07:20:46;15.90;97.60
29777;DHT22;16677;52.224;7.484;2023-09-19T07:23:19;16.00;99.90
29777;DHT22;16677;52.224;7.484;2023-09-19T07:25:49;16.00;63.40
29777;DHT22;16677;52.224;7.484;2023-09-19T07:28:16;16.10;25.90
29777;DHT22;16677;52.224;7.484;2023-09-19T07:30:43;16.00;35.80
29777;DHT22;16677;52.224;7.484;2023-09-19T07:33:10;16.00;59.90
29777;DHT22;16677;52.224;7.484;2023-09-19T07:35:40;15.80;72.50
29777;DHT22;16677;52.224;7.484;2023-09-19T07:38:07;15.80;90.30
29777;DHT22;16677;52.224;7.484;2023-09-19T07:40:34;15.70;99.90
29777;DHT22;16677;52.224;7.484;2023-09-19T07:43:01;15.80;87.90
29777;DHT22;16677;52.224;7.484;2023-09-19T07:45:28;16.00;97.30
29777;DHT22;16677;52.224;7.484;2023-09-19T07:47:59;15.90;67.00
29777;DHT22;16677;52.224;7.484;2023-09-19T07:50:32;16.00;99.90
29777;DHT22;16677;52.224;7.484;2023-09-19T07:52:59;16.00;78.70
29777;DHT22;16677;52.224;7.484;2023-09-19T07:55:26;16.10;90.00
29777;DHT22;16677;52.224;7.484;2023-09-19T07:57:53;16.10;74.70
29777;DHT22;16677;52.224;7.484;2023-09-19T08:00:20;16.10;95.10
29777;DHT22;16677;52.224;7.484;2023-09-19T08:02:47;16.00;99.80
29777;DHT22;16677;52.224;7.484;2023-09-19T08:05:19;16.40;67.00
29777;DHT22;16677;52.224;7.484;2023-09-19T08:07:47;16.60;17.00
29777;DHT22;16677;52.224;7.484;2023-09-19T08:10:17;16.80;1.00
29777;DHT22;16677;52.224;7.484;2023-09-19T08:12:46;16.70;4.50
29777;DHT22;16677;52.224;7.484;2023-09-19T08:15:18;16.40;52.20
29777;DHT22;16677;52.224;7.484;2023-09-19T08:17:48;16.70;19.50
29777;DHT22;16677;52.224;7.484;2023-09-19T08:20:15;16.60;44.40
29777;DHT22;16677;52.224;7.484;2023-09-19T08:22:51;16.90;28.90
29777;DHT22;16677;52.224;7.484;2023-09-19T08:25:22;16.70;15.30
29777;DHT22;16677;52.224;7.484;2023-09-19T08:27:50;16.60;38.00
29777;DHT22;16677;52.224;7.484;2023-09-19T08:30:18;16.70;52.40
29777;DHT22;16677;52.224;7.484;2023-09-19T08:32:45;16.90;26.30
29777;DHT22;16677;52.224;7.484;2023-09-19T08:35:13;17.10;12.50
29777;DHT22;16677;52.224;7.484;2023-09-19T08:37:41;17.10;1.00
29777;DHT22;16677;52.224;7.484;2023-09-19T08:40:08;17.20;1.00
29777;DHT22;16677;52.224;7.484;2023-09-19T08:42:48;17.20;1.00
29777;DHT22;16677;52.224;7.484;2023-09-19T08:45:16;17.00;1.00
29777;DHT22;16677;52.224;7.484;2023-09-19T08:47:45;17.20;1.00
29777;DHT22;16677;52.224;7.484;2023-09-19T08:52:43;17.00;1.00
29777;DHT22;16677;52.224;7.484;2023-09-19T08:55:11;17.30;1.00
29777;DHT22;16677;52.224;7.484;2023-09-19T08:57:38;17.10;1.00
29777;DHT22;16677;52.224;7.484;2023-09-19T09:00:08;17.10;1.00
29777;DHT22;16677;52.224;7.484;2023-09-19T09:02:38;17.10;1.00
29777;DHT22;16677;52.224;7.484;2023-09-19T09:05:11;17.30;1.00
29777;DHT22;16677;52.224;7.484;2023-09-19T09:07:38;17.40;1.00
29777;DHT22;16677;52.224;7.484;2023-09-19T09:10:05;17.50;1.00
29777;DHT22;16677;52.224;7.484;2023-09-19T09:12:33;17.30;1.00
29777;DHT22;16677;52.224;7.484;2023-09-19T09:15:03;17.60;1.00
29777;DHT22;16677;52.224;7.484;2023-09-19T09:17:30;17.50;1.00
29777;DHT22;16677;52.224;7.484;2023-09-19T09:19:57;17.40;1.00
29777;DHT22;16677;52.224;7.484;2023-09-19T09:22:25;17.50;1.00
29777;DHT22;16677;52.224;7.484;2023-09-19T09:24:53;17.80;1.00
29777;DHT22;16677;52.224;7.484;2023-09-19T09:27:20;17.80;1.00
29777;DHT22;16677;52.224;7.484;2023-09-19T09:29:51;17.60;1.00
29777;DHT22;16677;52.224;7.484;2023-09-19T09:32:22;17.60;1.00
29777;DHT22;16677;52.224;7.484;2023-09-19T09:34:53;17.40;1.00
29777;DHT22;16677;52.224;7.484;2023-09-19T09:37:22;17.40;1.00
29777;DHT22;16677;52.224;7.484;2023-09-19T09:39:52;17.60;1.00
29777;DHT22;16677;52.224;7.484;2023-09-19T09:42:30;17.60;1.00
29777;DHT22;16677;52.224;7.484;2023-09-19T09:47:41;18.00;1.00
29777;DHT22;16677;52.224;7.484;2023-09-19T09:50:08;17.90;1.00
29777;DHT22;16677;52.224;7.484;2023-09-19T09:52:44;18.10;1.00
29777;DHT22;16677;52.224;7.484;2023-09-19T09:55:11;18.00;1.00
29777;DHT22;16677;52.224;7.484;2023-09-19T09:57:39;18.00;1.00
29777;DHT22;16677;52.224;7.484;2023-09-19T10:00:08;18.20;1.00
29777;DHT22;16677;52.224;7.484;2023-09-19T10:02:39;18.00;1.00
29777;DHT22;16677;52.224;7.484;2023-09-19T10:05:11;18.10;1.00
29777;DHT22;16677;52.224;7.484;2023-09-19T10:08:11;18.20;1.00
29777;DHT22;16677;52.224;7.484;2023-09-19T10:10:40;18.20;1.00
29777;DHT22;16677;52.224;7.484;2023-09-19T10:13:11;18.10;1.00
29777;DHT22;16677;52.224;7.484;2023-09-19T10:15:47;18.30;1.00
29777;DHT22;16677;52.224;7.484;2023-09-19T10:18:19;18.30;1.00
29777;DHT22;16677;52.224;7.484;2023-09-19T10:20:47;18.30;1.00
29777;DHT22;16677;52.224;7.484;2023-09-19T10:23:16;18.50;1.00
29777;DHT22;16677;52.224;7.484;2023-09-19T10:25:49;18.30;1.00
29777;DHT22;16677;52.224;7.484;2023-09-19T10:28:16;18.40;1.00
29777;DHT22;16677;52.224;7.484;2023-09-19T10:30:49;18.40;1.00
29777;DHT22;16677;52.224;7.484;2023-09-19T10:33:23;18.60;1.00
29777;DHT22;16677;52.224;7.484;2023-09-19T10:35:53;18.60;1.00
29777;DHT22;16677;52.224;7.484;2023-09-19T10:38:23;18.50;1.00
29777;DHT22;16677;52.224;7.484;2023-09-19T10:40:51;18.30;1.00
29777;DHT22;16677;52.224;7.484;2023-09-19T10:43:19;18.50;1.00
29777;DHT22;16677;52.224;7.484;2023-09-19T10:45:48;18.80;1.00
29777;DHT22;16677;52.224;7.484;2023-09-19T10:48:16;19.30;1.00
29777;DHT22;16677;52.224;7.484;2023-09-19T10:50:51;19.00;1.00
29777;DHT22;16677;52.224;7.484;2023-09-19T10:53:19;19.00;1.00
29777;DHT22;16677;52.224;7.484;2023-09-19T10:55:49;19.20;1.00
29777;DHT22;16677;52.224;7.484;2023-09-19T10:58:27;19.30;1.00
29777;DHT22;16677;52.224;7.484;2023-09-19T11:01:00;19.30;1.00
29777;DHT22;16677;52.224;7.484;2023-09-19T11:03:34;19.00;1.00
29777;DHT22;16677;52.224;7.484;2023-09-19T11:06:04;19.50;1.00
29777;DHT22;16677;52.224;7.484;2023-09-19T11:11:51;19.50;1.00
29777;DHT22;16677;52.224;7.484;2023-09-19T11:22:24;19.70;1.00
29777;DHT22;16677;52.224;7.484;2023-09-19T11:24:53;19.40;1.00
29777;DHT22;16677;52.224;7.484;2023-09-19T11:27:22;19.40;1.00
29777;DHT22;16677;52.224;7.484;2023-09-19T11:30:26;19.00;1.00
29777;DHT22;16677;52.224;7.484;2023-09-19T11:33:27;19.30;1.00
29777;DHT22;16677;52.224;7.484;2023-09-19T11:36:04;19.30;1.00
29777;DHT22;16677;52.224;7.484;2023-09-19T11:43:49;19.10;1.00
29777;DHT22;16677;52.224;7.484;2023-09-19T11:46:24;19.40;1.00
29777;DHT22;16677;52.224;7.484;2023-09-19T11:48:52;19.50;1.00
29777;DHT22;16677;52.224;7.484;2023-09-19T11:51:21;19.60;1.00
29777;DHT22;16677;52.224;7.484;2023-09-19T11:53:56;19.60;1.00
29777;DHT22;16677;52.224;7.484;2023-09-19T11:56:25;19.70;1.00
29777;DHT22;16677;52.224;7.484;2023-09-19T11:58:55;19.90;1.00
29777;DHT22;16677;52.224;7.484;2023-09-19T12:01:31;19.80;1.00
29777;DHT22;16677;52.224;7.484;2023-09-19T12:04:03;19.90;1.00
29777;DHT22;16677;52.224;7.484;2023-09-19T12:06:32;19.80;1.00
29777;DHT22;16677;52.224;7.484;2023-09-19T12:08:59;19.80;1.00
29777;DHT22;16677;52.224;7.484;2023-09-19T12:11:30;19.60;1.00
29777;DHT22;16677;52.224;7.484;2023-09-19T12:14:01;19.80;1.00
29777;DHT22;16677;52.224;7.484;2023-09-19T12:16:29;19.70;1.00
29777;DHT22;16677;52.224;7.484;2023-09-19T12:19:18;19.90;1.00
29777;DHT22;16677;52.224;7.484;2023-09-19T12:22:00;19.90;1.00
29777;DHT22;16677;52.224;7.484;2023-09-19T12:24:36;19.90;1.00
29777;DHT22;16677;52.224;7.484;2023-09-19T12:27:07;19.50;1.00
29777;DHT22;16677;52.224;7.484;2023-09-19T12:29:48;19.70;1.00
29777;DHT22;16677;52.224;7.484;2023-09-19T12:32:36;19.60;1.00
29777;DHT22;16677;52.224;7.484;2023-09-19T12:35:08;19.60;1.00
29777;DHT22;16677;52.224;7.484;2023-09-19T12:37:43;19.30;1.00
29777;DHT22;16677;52.224;7.484;2023-09-19T12:40:15;19.40;1.00
29777;DHT22;16677;52.224;7.484;2023-09-19T12:42:49;19.60;1.00
29777;DHT22;16677;52.224;7.484;2023-09-19T12:45:17;19.70;1.00
29777;DHT22;16677;52.224;7.484;2023-09-19T12:48:22;19.90;1.00
29777;DHT22;16677;52.224;7.484;2023-09-19T12:51:10;19.70;1.00
29777;DHT22;16677;52.224;7.484;2023-09-19T12:53:44;20.00;1.00
29777;DHT22;16677;52.224;7.484;2023-09-19T12:56:17;19.80;1.00
29777;DHT22;16677;52.224;7.484;2023-09-19T12:58:52;19.50;1.00
29777;DHT22;16677;52.224;7.484;2023-09-19T13:01:22;19.50;1.00
29777;DHT22;16677;52.224;7.484;2023-09-19T13:04:10;19.30;1.00
29777;DHT22;16677;52.224;7.484;2023-09-19T13:06:39;19.40;1.00
29777;DHT22;16677;52.224;7.484;2023-09-19T13:09:11;19.60;1.00
29777;DHT22;16677;52.224;7.484;2023-09-19T13:11:38;19.70;1.00
29777;DHT22;16677;52.224;7.484;2023-09-19T13:17:05;19.50;1.00
29777;DHT22;16677;52.224;7.484;2023-09-19T13:19:48;19.90;1.00
29777;DHT22;16677;52.224;7.484;2023-09-19T13:22:39;19.90;1.00
29777;DHT22;16677;52.224;7.484;2023-09-19T13:25:13;20.30;1.00
29777;DHT22;16677;52.224;7.484;2023-09-19T13:27:52;20.20;1.00
29777;DHT22;16677;52.224;7.484;2023-09-19T13:30:22;20.10;1.00
29777;DHT22;16677;52.224;7.484;2023-09-19T13:32:50;20.20;1.00
29777;DHT22;16677;52.224;7.484;2023-09-19T13:35:18;20.50;1.00
29777;DHT22;16677;52.224;7.484;2023-09-19T13:37:47;20.50;1.00
29777;DHT22;16677;52.224;7.484;2023-09-19T13:40:16;20.50;1.00
29777;DHT22;16677;52.224;7.484;2023-09-19T13:42:43;20.40;1.00
29777;DHT22;16677;52.224;7.484;2023-09-19T13:45:10;20.40;1.00
29777;DHT22;16677;52.224;7.484;2023-09-19T13:47:39;20.40;1.00
29777;DHT22;16677;52.224;7.484;2023-09-19T13:50:07;20.30;1.00
29777;DHT22;16677;52.224;7.484;2023-09-19T13:52:35;20.30;1.00
29777;DHT22;16677;52.224;7.484;2023-09-19T13:55:03;20.20;1.00
29777;DHT22;16677;52.224;7.484;2023-09-19T13:57:31;20.20;1.00
29777;DHT22;16677;52.224;7.484;2023-09-19T14:00:00;20.20;1.00
29777;DHT22;16677;52.224;7.484;2023-09-19T14:02:27;20.10;1.00
29777;DHT22;16677;52.224;7.484;2023-09-19T14:04:54;19.80;1.00
29777;DHT22;16677;52.224;7.484;2023-09-19T14:07:22;19.90;1.00
29777;DHT22;16677;52.224;7.484;2023-09-19T14:09:49;19.80;1.00
29777;DHT22;16677;52.224;7.484;2023-09-19T14:12:16;19.70;1.00
29777;DHT22;16677;52.224;7.484;2023-09-19T14:14:43;19.70;1.00
29777;DHT22;16677;52.224;7.484;2023-09-19T14:17:12;19.70;1.00
29777;DHT22;16677;52.224;7.484;2023-09-19T14:19:41;19.70;1.00
29777;DHT22;16677;52.224;7.484;2023-09-19T14:22:12;19.60;1.00
29777;DHT22;16677;52.224;7.484;2023-09-19T14:24:40;19.50;1.00
29777;DHT22;16677;52.224;7.484;2023-09-19T14:27:08;19.70;1.00
29777;DHT22;16677;52.224;7.484;2023-09-19T14:29:36;19.70;1.00
29777;DHT22;16677;52.224;7.484;2023-09-19T14:32:04;19.60;1.00
29777;DHT22;16677;52.224;7.484;2023-09-19T14:34:31;19.60;1.00
29777;DHT22;16677;52.224;7.484;2023-09-19T14:36:59;19.50;1.00
29777;DHT22;16677;52.224;7.484;2023-09-19T14:39:27;19.50;1.00
29777;DHT22;16677;52.224;7.484;2023-09-19T14:41:54;19.50;1.00
29777;DHT22;16677;52.224;7.484;2023-09-19T14:44:21;19.50;1.00
29777;DHT22;16677;52.224;7.484;2023-09-19T14:46:49;19.50;1.00
29777;DHT22;16677;52.224;7.484;2023-09-19T14:49:16;19.60;1.00
29777;DHT22;16677;52.224;7.484;2023-09-19T14:51:43;19.70;1.00
29777;DHT22;16677;52.224;7.484;2023-09-19T14:54:11;19.70;1.00
29777;DHT22;16677;52.224;7.484;2023-09-19T14:56:38;19.70;1.00
29777;DHT22;16677;52.224;7.484;2023-09-19T14:59:07;19.70;1.00
29777;DHT22;16677;52.224;7.484;2023-09-19T15:01:34;19.60;1.00
29777;DHT22;16677;52.224;7.484;2023-09-19T15:04:02;19.50;1.00
29777;DHT22;16677;52.224;7.484;2023-09-19T15:06:29;19.50;1.00
29777;DHT22;16677;52.224;7.484;2023-09-19T15:08:57;19.50;1.00
29777;DHT22;16677;52.224;7.484;2023-09-19T15:11:24;19.50;1.00
29777;DHT22;16677;52.224;7.484;2023-09-19T15:13:52;19.50;1.00
29777;DHT22;16677;52.224;7.484;2023-09-19T15:16:21;19.60;1.00
29777;DHT22;16677;52.224;7.484;2023-09-19T15:18:49;19.80;1.00
29777;DHT22;16677;52.224;7.484;2023-09-19T15:21:16;19.70;1.00
29777;DHT22;16677;52.224;7.484;2023-09-19T15:23:44;19.70;1.00
29777;DHT22;16677;52.224;7.484;2023-09-19T15:26:13;19.70;1.00
29777;DHT22;16677;52.224;7.484;2023-09-19T15:28:40;19.80;1.00
29777;DHT22;16677;52.224;7.484;2023-09-19T15:31:10;19.80;1.00
29777;DHT22;16677;52.224;7.484;2023-09-19T15:33:38;19.90;1.00
29777;DHT22;16677;52.224;7.484;2023-09-19T15:36:10;19.70;1.00
29777;DHT22;16677;52.224;7.484;2023-09-19T15:38:57;19.70;1.00
29777;DHT22;16677;52.224;7.484;2023-09-19T15:41:28;19.80;1.00
29777;DHT22;16677;52.224;7.484;2023-09-19T15:43:57;19.60;1.00
29777;DHT22;16677;52.224;7.484;2023-09-19T15:46:26;19.70;1.00
29777;DHT22;16677;52.224;7.484;2023-09-19T15:48:54;19.70;1.00
29777;DHT22;16677;52.224;7.484;2023-09-19T15:51:21;19.60;1.00
29777;DHT22;16677;52.224;7.484;2023-09-19T15:53:50;19.50;1.00
29777;DHT22;16677;52.224;7.484;2023-09-19T15:56:18;19.50;1.00
29777;DHT22;16677;52.224;7.484;2023-09-19T15:58:46;19.40;1.00
29777;DHT22;16677;52.224;7.484;2023-09-19T16:01:14;19.40;1.00
29777;DHT22;16677;52.224;7.484;2023-09-19T16:03:48;19.30;1.00
29777;DHT22;16677;52.224;7.484;2023-09-19T16:06:17;19.30;1.00
29777;DHT22;16677;52.224;7.484;2023-09-19T16:08:47;19.40;1.00
29777;DHT22;16677;52.224;7.484;2023-09-19T16:11:16;19.40;1.00
29777;DHT22;16677;52.224;7.484;2023-09-19T16:13:44;19.40;1.00
29777;DHT22;16677;52.224;7.484;2023-09-19T16:16:15;19.40;1.00
29777;DHT22;16677;52.224;7.484;2023-09-19T16:18:47;19.40;1.00
29777;DHT22;16677;52.224;7.484;2023-09-19T16:21:18;19.30;1.00
29777;DHT22;16677;52.224;7.484;2023-09-19T16:23:49;19.30;1.00
29777;DHT22;16677;52.224;7.484;2023-09-19T16:26:18;19.20;1.00
29777;DHT22;16677;52.224;7.484;2023-09-19T16:28:51;19.20;1.00
29777;DHT22;16677;52.224;7.484;2023-09-19T16:31:19;19.10;1.00
29777;DHT22;16677;52.224;7.484;2023-09-19T16:33:47;19.10;1.00
29777;DHT22;16677;52.224;7.484;2023-09-19T16:36:16;19.10;1.00
29777;DHT22;16677;52.224;7.484;2023-09-19T16:38:46;19.10;1.00